Levante — 9HOB7 — position and weather

sailwx.info

Track history (hours):
 
Tides and Currents Weather Stations Pressure Air Temp Water Temp Dewpoint Dewpoint Depression Visibility Wind Speed Wind Dir Waves Ship Positions

Levante

Last reported at 2017-Apr-23 03:03 UTC. Time now 2017-Apr-26 09:54 UTC.
Position N 37°25' E 025°55'.

Length 188.3 m; beam 28 m; draft 10.1 m.

Type: Cargo ship. MMSI: 215440000.

Date/timePositionNaut miles runAvg speedWind from/ knotsBaromVisibWave heightAir tempDewpointWater temp
2017-Apr-23 03:03N 37°25' E 025°55'012.5
2017-Apr-23 03:00N 37°26' E 025°55'612.3
2017-Apr-23 02:30N 37°30' E 025°49'812.3
2017-Apr-23 01:53N 37°37' E 025°46'512.5
2017-Apr-23 01:30N 37°41' E 025°43'612.3
2017-Apr-23 01:00N 37°47' E 025°41'238 9.4
2017-Apr-21 23:42N 40°47' E 029°03'212.5
2017-Apr-21 23:30N 40°46' E 029°06'612.6
2017-Apr-21 23:00N 40°45' E 029°14'611.4
2017-Apr-21 22:30N 40°45' E 029°22'5 9.2
2017-Apr-21 22:00N 40°45' E 029°28'5 9.6
2017-Apr-21 21:30N 40°45' E 029°34'2 0.0
2017-Apr-20 09:30N 40°46' E 029°36'  
2017-Apr-16 22:18N 40°46' E 029°36'2 2.8
2017-Apr-16 21:28N 40°46' E 029°39'  
Track history (hours):
 
Tides and Currents Weather Stations Pressure Air Temp Water Temp Dewpoint Dewpoint Depression Visibility Wind Speed Wind Dir Waves Ship Positions

Levante

Last reported at 2017-Apr-23 03:03 UTC. Time now 2017-Apr-26 09:54 UTC.
Position N 37°25' E 025°55'.

Length 188.3 m; beam 28 m; draft 10.1 m.

Type: Cargo ship. MMSI: 215440000.

Date/timePositionNaut miles runAvg speedWind from/ knotsBaromVisibWave heightAir tempDewpointWater temp
2017-Apr-23 03:03N 37°25' E 025°55'012.5
2017-Apr-23 03:00N 37°26' E 025°55'612.3
2017-Apr-23 02:30N 37°30' E 025°49'812.3
2017-Apr-23 01:53N 37°37' E 025°46'512.5
2017-Apr-23 01:30N 37°41' E 025°43'612.3
2017-Apr-23 01:00N 37°47' E 025°41'238 9.4
2017-Apr-21 23:42N 40°47' E 029°03'212.5
2017-Apr-21 23:30N 40°46' E 029°06'612.6
2017-Apr-21 23:00N 40°45' E 029°14'611.4
2017-Apr-21 22:30N 40°45' E 029°22'5 9.2
2017-Apr-21 22:00N 40°45' E 029°28'5 9.6
2017-Apr-21 21:30N 40°45' E 029°34'2 0.0
2017-Apr-20 09:30N 40°46' E 029°36'  
2017-Apr-16 22:18N 40°46' E 029°36'2 2.8
2017-Apr-16 21:28N 40°46' E 029°39'  

Dump ship's entire track history